createdAt,value
2019-02-14T00:00:32.281Z,14.80
2019-02-14T00:03:01.168Z,15.03
2019-02-14T00:05:30.078Z,14.57
2019-02-14T00:07:58.894Z,14.93
2019-02-14T00:10:27.939Z,15.40
2019-02-14T00:12:56.789Z,14.43
2019-02-14T00:15:25.603Z,14.87
2019-02-14T00:17:54.601Z,14.77
2019-02-14T00:20:23.715Z,14.93
2019-02-14T00:22:52.498Z,15.77
2019-02-14T00:25:21.389Z,15.23
2019-02-14T00:27:50.245Z,14.37
2019-02-14T00:30:19.206Z,14.17
2019-02-14T00:32:48.018Z,14.80
2019-02-14T00:35:23.405Z,14.67
2019-02-14T00:37:47.480Z,14.53
2019-02-14T00:40:16.372Z,15.90
2019-02-14T00:42:45.138Z,14.70
2019-02-14T00:45:14.035Z,14.37
2019-02-14T00:47:42.861Z,15.43
2019-02-14T00:50:12.794Z,15.70
2019-02-14T00:52:41.971Z,14.27
2019-02-14T00:55:10.897Z,15.00
2019-02-14T00:57:39.803Z,15.67
2019-02-14T01:00:09.271Z,15.43
2019-02-14T01:02:38.204Z,15.43
2019-02-14T01:07:47.592Z,14.20
2019-02-14T01:10:16.606Z,15.17
2019-02-14T01:12:45.436Z,14.93
2019-02-14T01:15:15.972Z,15.28
2019-02-14T01:17:44.835Z,16.00
2019-02-14T01:20:13.864Z,14.43
2019-02-14T01:22:42.825Z,14.90
2019-02-14T01:25:11.752Z,14.93
2019-02-14T01:27:40.583Z,15.43
2019-02-14T01:30:10.202Z,14.73
2019-02-14T01:32:39.127Z,14.50
2019-02-14T01:35:08.453Z,14.77
2019-02-14T01:37:37.835Z,14.43
2019-02-14T01:40:06.864Z,15.27
2019-02-14T01:42:35.825Z,15.17
2019-02-14T01:45:05.877Z,15.30
2019-02-14T01:47:34.754Z,15.10
2019-02-14T01:50:04.016Z,15.37
2019-02-14T01:52:32.888Z,14.90
2019-02-14T01:55:01.701Z,15.63
2019-02-14T01:57:30.581Z,15.30
2019-02-14T01:59:59.547Z,15.50
2019-02-14T02:02:28.564Z,15.83
2019-02-14T02:04:57.598Z,14.67
2019-02-14T02:07:26.424Z,15.73
2019-02-14T02:09:56.321Z,15.20
2019-02-14T02:12:25.160Z,15.20
2019-02-14T02:14:54.085Z,15.03
2019-02-14T02:17:22.979Z,14.73
2019-02-14T02:19:52.006Z,14.40
2019-02-14T02:22:20.901Z,15.13
2019-02-14T02:24:49.794Z,15.87
2019-02-14T02:27:18.788Z,16.27
2019-02-14T02:29:47.784Z,14.83
2019-02-14T02:32:16.687Z,15.83
2019-02-14T02:34:45.565Z,15.83
2019-02-14T02:37:14.414Z,15.17
2019-02-14T02:39:43.601Z,16.70
2019-02-14T02:42:12.461Z,15.90
2019-02-14T02:44:41.406Z,16.40
2019-02-14T02:47:10.292Z,16.57
2019-02-14T02:49:39.288Z,15.90
2019-02-14T02:52:08.346Z,16.20
2019-02-14T02:54:37.215Z,16.10
2019-02-14T02:57:06.163Z,16.67
2019-02-14T02:59:35.172Z,16.87
2019-02-14T03:02:04.351Z,15.80
2019-02-14T03:04:33.221Z,16.27
2019-02-14T03:07:02.098Z,16.13
2019-02-14T03:09:31.139Z,15.60
2019-02-14T03:11:59.991Z,17.40
2019-02-14T03:14:28.840Z,16.17
2019-02-14T03:16:57.694Z,15.70
2019-02-14T03:19:26.622Z,17.63
2019-02-14T03:21:55.527Z,16.13
2019-02-14T03:24:24.431Z,16.47
2019-02-14T03:26:53.381Z,15.70
2019-02-14T03:29:22.379Z,15.50
2019-02-14T03:31:51.563Z,16.00
2019-02-14T03:34:20.449Z,15.97
2019-02-14T03:36:50.590Z,15.93
2019-02-14T03:39:19.671Z,15.60
2019-02-14T03:41:48.634Z,16.07
2019-02-14T03:44:17.483Z,15.63
2019-02-14T03:46:46.370Z,16.23
2019-02-14T03:49:15.440Z,15.73
2019-02-14T03:51:44.330Z,15.80
2019-02-14T03:54:13.245Z,16.40
2019-02-14T03:56:42.269Z,15.77
2019-02-14T03:59:12.237Z,15.83
2019-02-14T04:01:41.103Z,16.47
2019-02-14T04:04:09.904Z,15.57
2019-02-14T04:06:38.885Z,15.97
2019-02-14T04:09:08.482Z,16.00
2019-02-14T04:11:37.418Z,15.87
2019-02-14T04:14:06.376Z,15.03
2019-02-14T04:16:35.363Z,15.70
2019-02-14T04:19:04.400Z,15.37
2019-02-14T04:21:33.206Z,15.63
2019-02-14T04:24:02.128Z,14.33
2019-02-14T04:26:31.035Z,15.63
2019-02-14T04:29:00.047Z,15.20
2019-02-14T04:31:28.928Z,15.63
2019-02-14T04:33:57.863Z,15.67
2019-02-14T04:36:26.774Z,15.07
2019-02-14T04:38:56.628Z,15.67
2019-02-14T04:41:25.529Z,15.53
2019-02-14T04:43:54.388Z,15.50
2019-02-14T04:46:23.301Z,15.20
2019-02-14T04:48:52.208Z,14.20
2019-02-14T04:51:21.117Z,14.67
2019-02-14T04:53:50.043Z,14.63
2019-02-14T04:56:19.798Z,14.67
2019-02-14T04:58:48.867Z,14.37
2019-02-14T05:01:17.724Z,15.63
2019-02-14T05:03:46.486Z,14.87
2019-02-14T05:06:15.431Z,14.83
2019-02-14T05:08:44.384Z,15.83
2019-02-14T05:11:13.246Z,15.50
2019-02-14T05:13:42.073Z,15.90
2019-02-14T05:16:10.858Z,15.13
2019-02-14T05:18:39.941Z,14.77
2019-02-14T05:21:08.851Z,16.37
2019-02-14T05:23:37.758Z,16.23
2019-02-14T05:26:06.777Z,16.33
2019-02-14T05:28:35.917Z,16.43
2019-02-14T05:31:04.857Z,14.87
2019-02-14T05:33:33.734Z,15.97
2019-02-14T05:36:02.645Z,16.83
2019-02-14T05:38:32.637Z,15.57
2019-02-14T05:41:01.523Z,16.23
2019-02-14T05:43:30.453Z,15.97
2019-02-14T05:45:59.394Z,16.37
2019-02-14T05:48:28.407Z,16.00
2019-02-14T05:50:57.271Z,16.07
2019-02-14T05:53:26.104Z,15.60
2019-02-14T05:55:55.051Z,16.47
2019-02-14T05:58:24.064Z,15.60
2019-02-14T06:00:52.995Z,16.97
2019-02-14T06:03:21.844Z,15.90
2019-02-14T06:05:50.725Z,16.27
2019-02-14T06:08:19.567Z,15.40
2019-02-14T06:10:48.415Z,15.57
2019-02-14T06:13:17.355Z,14.90
2019-02-14T06:15:46.175Z,16.20
2019-02-14T06:18:15.142Z,15.83
2019-02-14T06:20:44.105Z,15.77
2019-02-14T06:23:12.916Z,16.83
2019-02-14T06:25:41.782Z,16.30
2019-02-14T06:28:10.705Z,15.97
2019-02-14T06:30:39.638Z,15.67
2019-02-14T06:33:08.581Z,15.90
2019-02-14T06:35:37.408Z,16.37
2019-02-14T06:38:06.356Z,16.10
2019-02-14T06:40:35.277Z,16.03
2019-02-14T06:43:04.197Z,16.83
2019-02-14T06:45:35.229Z,16.17
2019-02-14T06:48:03.890Z,16.07
2019-02-14T06:50:34.854Z,15.70
2019-02-14T06:53:03.447Z,16.47
2019-02-14T06:55:32.261Z,16.60
2019-02-14T06:58:01.222Z,15.73
2019-02-14T07:00:30.116Z,16.23
2019-02-14T07:02:58.989Z,16.40
2019-02-14T07:05:27.857Z,15.70
2019-02-14T07:07:56.738Z,16.70
2019-02-14T07:10:25.655Z,16.97
2019-02-14T07:12:54.469Z,16.73
2019-02-14T07:15:23.303Z,17.10
2019-02-14T07:17:52.115Z,16.03
2019-02-14T07:20:20.997Z,16.40
2019-02-14T07:22:49.782Z,16.67
2019-02-14T07:25:18.677Z,16.00
2019-02-14T07:27:47.451Z,15.80
2019-02-14T07:30:18.115Z,17.10
2019-02-14T07:32:46.941Z,16.97
2019-02-14T07:35:15.740Z,16.60
2019-02-14T07:37:44.521Z,15.47
2019-02-14T07:40:19.251Z,16.43
2019-02-14T07:42:48.260Z,16.80
2019-02-14T07:45:17.231Z,17.35
2019-02-14T07:47:46.064Z,16.57
2019-02-14T07:50:15.317Z,16.60
2019-02-14T07:52:44.146Z,15.77
2019-02-14T07:55:13.091Z,16.20
2019-02-14T07:57:42.209Z,15.53
2019-02-14T08:00:13.189Z,16.57
2019-02-14T08:02:42.047Z,16.33
2019-02-14T08:05:11.353Z,15.63
2019-02-14T08:07:40.214Z,15.20
2019-02-14T08:10:11.609Z,15.90
2019-02-14T08:12:40.489Z,16.03
2019-02-14T08:15:11.832Z,15.63
2019-02-14T08:17:40.923Z,15.80
2019-02-14T08:20:10.494Z,16.33
2019-02-14T08:22:39.311Z,15.67
2019-02-14T08:25:09.778Z,16.00
2019-02-14T08:27:38.646Z,15.17
2019-02-14T08:30:10.842Z,15.27
2019-02-14T08:32:39.727Z,16.63
2019-02-14T08:35:09.115Z,15.08
2019-02-14T08:37:44.921Z,14.60
2019-02-14T08:40:11.415Z,13.80
2019-02-14T08:42:40.275Z,15.63
2019-02-14T08:45:10.244Z,15.07
2019-02-14T08:47:39.261Z,15.07
2019-02-14T08:50:09.267Z,15.28
2019-02-14T08:52:38.086Z,15.10
2019-02-14T08:55:06.975Z,14.23
2019-02-14T08:57:35.859Z,14.70
2019-02-14T09:00:06.521Z,15.57
2019-02-14T09:02:35.312Z,13.83
2019-02-14T09:05:04.610Z,14.40
2019-02-14T09:07:33.461Z,14.57
2019-02-14T09:10:02.534Z,14.33
2019-02-14T09:12:31.450Z,14.00
2019-02-14T09:15:00.243Z,13.60
2019-02-14T09:17:29.198Z,14.93
2019-02-14T09:19:58.018Z,13.50
2019-02-14T09:22:26.845Z,13.27
2019-02-14T09:24:55.641Z,12.80
2019-02-14T09:27:24.518Z,14.53
2019-02-14T09:29:53.389Z,13.47
2019-02-14T09:32:25.470Z,13.83
2019-02-14T09:34:54.341Z,13.67
2019-02-14T09:37:23.139Z,13.87
2019-02-14T09:39:52.018Z,14.17
2019-02-14T09:42:20.894Z,13.37
2019-02-14T09:44:49.793Z,14.33
2019-02-14T09:47:18.722Z,13.93
2019-02-14T09:49:47.577Z,14.50
2019-02-14T09:52:16.373Z,14.10
2019-02-14T09:54:45.175Z,14.17
2019-02-14T09:57:14.246Z,14.07
2019-02-14T09:59:43.126Z,13.93
2019-02-14T10:02:11.936Z,13.83
2019-02-14T10:04:40.744Z,12.47
2019-02-14T10:07:09.616Z,14.60
2019-02-14T10:09:38.443Z,14.00
2019-02-14T10:12:07.566Z,12.85
2019-02-14T10:14:36.508Z,12.97
2019-02-14T10:17:05.361Z,13.57
2019-02-14T10:19:34.278Z,13.60
2019-02-14T10:22:03.111Z,13.27
2019-02-14T10:24:32.088Z,13.97
2019-02-14T10:27:01.008Z,13.40
2019-02-14T10:29:30.019Z,13.67
2019-02-14T10:31:58.816Z,13.00
2019-02-14T10:34:27.721Z,12.50
2019-02-14T10:36:56.561Z,13.53
2019-02-14T10:39:25.580Z,12.53
2019-02-14T10:41:54.459Z,12.63
2019-02-14T10:44:23.252Z,12.50
2019-02-14T10:46:52.004Z,12.00
2019-02-14T10:49:20.897Z,12.33
2019-02-14T10:51:49.701Z,12.30
2019-02-14T10:54:18.530Z,12.40
2019-02-14T10:56:47.405Z,11.13
2019-02-14T10:59:16.275Z,11.23
2019-02-14T11:01:45.165Z,10.50
2019-02-14T11:04:13.944Z,9.80
2019-02-14T11:06:42.824Z,9.80
2019-02-14T11:09:11.918Z,11.07
2019-02-14T11:11:40.870Z,9.73
2019-02-14T11:14:09.730Z,9.67
2019-02-14T11:16:38.648Z,10.20
2019-02-14T11:19:07.664Z,11.17
2019-02-14T11:21:36.490Z,8.90
2019-02-14T11:24:05.270Z,9.63
2019-02-14T11:26:34.065Z,9.70
2019-02-14T11:29:02.996Z,9.43
2019-02-14T11:31:31.814Z,9.27
2019-02-14T11:34:00.555Z,9.23
2019-02-14T11:36:29.397Z,9.20
2019-02-14T11:38:58.285Z,8.57
2019-02-14T11:41:27.186Z,8.63
2019-02-14T11:43:56.031Z,8.77
2019-02-14T11:46:24.903Z,8.67
2019-02-14T11:48:53.853Z,8.30
2019-02-14T11:51:22.643Z,8.80
2019-02-14T11:53:51.480Z,8.27
2019-02-14T11:56:20.330Z,7.53
2019-02-14T11:58:49.216Z,8.33
2019-02-14T12:01:18.017Z,8.70
2019-02-14T12:03:46.793Z,7.83
2019-02-14T12:06:17.736Z,7.43
2019-02-14T12:08:57.707Z,7.70
2019-02-14T12:11:16.749Z,7.50
2019-02-14T12:13:45.546Z,7.57
2019-02-14T12:16:14.319Z,7.43
2019-02-14T12:18:43.223Z,7.67
2019-02-14T12:21:12.124Z,7.57
2019-02-14T12:23:40.902Z,6.53
2019-02-14T12:26:09.675Z,6.60
2019-02-14T12:28:38.648Z,7.67
2019-02-14T12:31:07.490Z,6.60
2019-02-14T12:33:36.312Z,7.13
2019-02-14T12:36:05.553Z,7.40
2019-02-14T12:38:34.533Z,6.57
2019-02-14T12:41:03.297Z,7.37
2019-02-14T12:43:32.129Z,6.97
2019-02-14T12:46:00.907Z,7.13
2019-02-14T12:48:30.206Z,6.60
2019-02-14T12:50:59.009Z,7.33
2019-02-14T12:53:27.834Z,6.60
2019-02-14T12:55:56.626Z,7.03
2019-02-14T12:58:25.429Z,6.40
2019-02-14T13:00:54.238Z,6.53
2019-02-14T13:03:23.020Z,6.13
2019-02-14T13:05:51.852Z,6.33
2019-02-14T13:08:20.822Z,6.20
2019-02-14T13:10:49.629Z,5.50
2019-02-14T13:13:18.413Z,5.27
2019-02-14T13:15:47.190Z,5.10
2019-02-14T13:18:16.134Z,4.93
2019-02-14T13:20:44.952Z,4.77
2019-02-14T13:23:13.739Z,5.00
2019-02-14T13:25:42.573Z,5.10
2019-02-14T13:28:11.379Z,4.60
2019-02-14T13:30:40.254Z,4.40
2019-02-14T13:33:09.104Z,4.40
2019-02-14T13:35:37.981Z,4.00
2019-02-14T13:38:06.854Z,4.57
2019-02-14T13:40:35.756Z,4.20
2019-02-14T13:43:04.716Z,4.40
2019-02-14T13:45:33.619Z,4.23
2019-02-14T13:48:02.427Z,4.33
2019-02-14T13:50:31.392Z,4.07
2019-02-14T13:53:00.223Z,4.50
2019-02-14T13:55:29.019Z,4.57
2019-02-14T13:57:57.800Z,4.20
2019-02-14T14:00:27.520Z,4.40
2019-02-14T14:02:56.486Z,4.67
2019-02-14T14:05:25.383Z,4.75
2019-02-14T14:07:54.294Z,4.40
2019-02-14T14:10:23.299Z,4.33
2019-02-14T14:12:52.203Z,4.63
2019-02-14T14:15:21.024Z,4.30
2019-02-14T14:17:49.901Z,4.30
2019-02-14T14:20:18.927Z,4.63
2019-02-14T14:22:47.719Z,4.07
2019-02-14T14:25:16.511Z,4.50
2019-02-14T14:27:45.306Z,4.33
2019-02-14T14:30:14.523Z,4.40
2019-02-14T14:32:43.329Z,4.23
2019-02-14T14:35:12.267Z,4.03
2019-02-14T14:37:41.148Z,4.30
2019-02-14T14:40:11.096Z,4.50
2019-02-14T14:43:08.032Z,4.87
2019-02-14T14:45:57.069Z,4.00
2019-02-14T14:48:30.493Z,3.80
2019-02-14T14:50:59.299Z,4.67
2019-02-14T14:53:28.079Z,5.40
2019-02-14T14:55:56.872Z,5.07
2019-02-14T14:58:25.794Z,5.10
2019-02-14T15:00:54.621Z,4.87
2019-02-14T15:03:23.405Z,5.27
2019-02-14T15:08:34.199Z,5.40
2019-02-14T15:11:03.001Z,5.27
2019-02-14T15:13:31.779Z,5.13
2019-02-14T15:16:00.975Z,4.80
2019-02-14T15:18:31.004Z,5.10
2019-02-14T15:20:59.779Z,5.17
2019-02-14T15:23:28.565Z,5.40
2019-02-14T15:25:57.455Z,5.07
2019-02-14T15:28:26.516Z,5.23
2019-02-14T15:30:55.357Z,5.00
2019-02-14T15:33:24.241Z,5.50
2019-02-14T15:35:52.991Z,5.00
2019-02-14T15:38:22.006Z,4.87
2019-02-14T15:40:50.980Z,5.27
2019-02-14T15:43:19.862Z,4.70
2019-02-14T15:45:48.758Z,5.37
2019-02-14T15:48:17.852Z,4.93
2019-02-14T15:50:47.029Z,4.60
2019-02-14T15:53:17.452Z,5.20
2019-02-14T15:55:46.465Z,4.63
2019-02-14T15:58:15.378Z,4.73
2019-02-14T16:00:44.288Z,4.47
2019-02-14T16:03:15.340Z,4.17
2019-02-14T16:05:43.685Z,4.47
2019-02-14T16:08:13.304Z,4.77
2019-02-14T16:10:42.073Z,4.50
2019-02-14T16:13:10.869Z,4.33
2019-02-14T16:15:39.677Z,4.30
2019-02-14T16:18:08.508Z,4.40
2019-02-14T16:20:37.383Z,4.03
2019-02-14T16:23:08.061Z,4.90
2019-02-14T16:25:36.855Z,4.63
2019-02-14T16:28:05.700Z,4.60
2019-02-14T16:30:34.651Z,5.57
2019-02-14T16:33:03.454Z,5.10
2019-02-14T16:35:32.265Z,5.23
2019-02-14T16:38:03.445Z,6.10
2019-02-14T16:40:38.592Z,8.13
2019-02-14T16:43:03.007Z,7.77
2019-02-14T16:45:31.810Z,8.53
2019-02-14T16:48:00.591Z,8.27
2019-02-14T16:50:29.467Z,7.80
2019-02-14T16:52:58.314Z,6.60
2019-02-14T16:55:27.203Z,6.57
2019-02-14T16:57:55.990Z,6.83
2019-02-14T17:00:28.896Z,5.95
2019-02-14T17:02:56.650Z,6.13
2019-02-14T17:05:25.515Z,7.70
2019-02-14T17:07:56.032Z,5.70
2019-02-14T17:10:24.854Z,6.27
2019-02-14T17:12:53.669Z,6.20
2019-02-14T17:15:22.437Z,6.53
2019-02-14T17:17:51.366Z,6.10
2019-02-14T17:20:20.230Z,6.57
2019-02-14T17:22:49.139Z,6.27
2019-02-14T17:25:18.005Z,6.30
2019-02-14T17:27:46.797Z,5.77
2019-02-14T17:30:15.691Z,6.13
2019-02-14T17:32:44.528Z,6.10
2019-02-14T17:35:13.442Z,5.90
2019-02-14T17:37:42.215Z,6.10
2019-02-14T17:40:11.206Z,6.07
2019-02-14T17:42:40.105Z,5.97
2019-02-14T17:45:09.385Z,6.50
2019-02-14T17:47:38.291Z,6.50
2019-02-14T17:50:08.784Z,7.13
2019-02-14T17:52:37.628Z,5.90
2019-02-14T17:55:07.024Z,6.57
2019-02-14T17:57:35.805Z,6.47
2019-02-14T18:00:07.400Z,6.87
2019-02-14T18:02:36.281Z,6.60
2019-02-14T18:05:05.783Z,6.70
2019-02-14T18:07:34.644Z,6.57
2019-02-14T18:10:03.712Z,5.93
2019-02-14T18:12:32.505Z,5.80
2019-02-14T18:15:01.293Z,6.77
2019-02-14T18:17:30.227Z,6.53
2019-02-14T18:19:59.085Z,6.70
2019-02-14T18:22:27.883Z,7.07
2019-02-14T18:24:56.620Z,6.97
2019-02-14T18:27:25.480Z,7.63
2019-02-14T18:29:54.519Z,9.43
2019-02-14T18:32:23.333Z,11.23
2019-02-14T18:34:52.189Z,9.00
2019-02-14T18:37:20.988Z,8.57
2019-02-14T18:39:49.811Z,9.27
2019-02-14T18:42:18.603Z,9.90
2019-02-14T18:44:47.504Z,9.10
2019-02-14T18:47:16.473Z,8.20
2019-02-14T18:49:45.344Z,8.67
2019-02-14T18:52:14.201Z,8.33
2019-02-14T18:54:43.020Z,8.57
2019-02-14T18:57:11.855Z,7.47
2019-02-14T18:59:40.725Z,7.87
2019-02-14T19:02:09.498Z,6.83
2019-02-14T19:04:38.269Z,6.57
2019-02-14T19:07:07.502Z,7.53
2019-02-14T19:09:36.469Z,7.10
2019-02-14T19:12:06.305Z,7.03
2019-02-14T19:14:35.118Z,8.27
2019-02-14T19:17:03.994Z,7.13
2019-02-14T19:19:32.961Z,6.43
2019-02-14T19:22:01.747Z,6.63
2019-02-14T19:24:30.644Z,7.17
2019-02-14T19:26:59.597Z,7.53
2019-02-14T19:29:28.402Z,8.00
2019-02-14T19:31:57.209Z,7.60
2019-02-14T19:34:25.991Z,7.67
2019-02-14T19:36:54.873Z,7.37
2019-02-14T19:39:23.767Z,8.40
2019-02-14T19:41:52.555Z,8.77
2019-02-14T19:44:21.347Z,8.07
2019-02-14T19:46:50.236Z,7.57
2019-02-14T19:49:19.119Z,6.83
2019-02-14T19:51:47.914Z,11.03
2019-02-14T19:54:16.757Z,10.17
2019-02-14T19:56:45.581Z,9.80
2019-02-14T19:59:14.487Z,7.97
2019-02-14T20:01:43.280Z,6.90
2019-02-14T20:04:12.062Z,7.60
2019-02-14T20:06:40.959Z,7.67
2019-02-14T20:09:10.091Z,7.47
2019-02-14T20:11:38.849Z,7.45
2019-02-14T20:14:07.698Z,7.67
2019-02-14T20:16:36.487Z,7.57
2019-02-14T20:19:05.379Z,7.20
2019-02-14T20:21:34.214Z,7.23
2019-02-14T20:24:03.106Z,7.83
2019-02-14T20:26:31.897Z,7.67
2019-02-14T20:29:00.765Z,7.47
2019-02-14T20:31:29.727Z,8.10
2019-02-14T20:33:58.530Z,8.83
2019-02-14T20:36:27.337Z,8.20
2019-02-14T20:38:56.350Z,8.47
2019-02-14T20:41:25.187Z,8.47
2019-02-14T20:43:54.057Z,8.30
2019-02-14T20:46:22.875Z,8.10
2019-02-14T20:48:52.657Z,7.60
2019-02-14T20:51:21.629Z,7.23
2019-02-14T20:53:50.398Z,7.20
2019-02-14T20:56:19.279Z,7.33
2019-02-14T20:58:48.250Z,7.20
2019-02-14T21:01:17.068Z,7.60
2019-02-14T21:03:45.921Z,7.77
2019-02-14T21:06:14.806Z,7.53
2019-02-14T21:08:43.826Z,7.20
2019-02-14T21:11:12.617Z,7.17
2019-02-14T21:13:41.433Z,6.93
2019-02-14T21:16:10.299Z,7.30
2019-02-14T21:18:39.155Z,7.90
2019-02-14T21:21:08.061Z,7.87
2019-02-14T21:23:36.933Z,7.30
2019-02-14T21:26:05.783Z,7.90
2019-02-14T21:28:34.838Z,7.57
2019-02-14T21:31:03.677Z,7.77
2019-02-14T21:33:32.535Z,9.00
2019-02-14T21:36:01.297Z,7.50
2019-02-14T21:38:30.227Z,6.97
2019-02-14T21:40:59.173Z,8.17
2019-02-14T21:43:28.026Z,7.07
2019-02-14T21:45:56.774Z,7.60
2019-02-14T21:48:25.675Z,7.77
2019-02-14T21:50:54.546Z,7.90
2019-02-14T21:53:23.308Z,7.57
2019-02-14T21:55:52.110Z,7.63
2019-02-14T21:58:21.429Z,7.90
2019-02-14T22:00:50.329Z,8.17
2019-02-14T22:03:19.147Z,8.20
2019-02-14T22:05:48.001Z,7.83
2019-02-14T22:08:16.795Z,7.97
2019-02-14T22:10:45.669Z,7.97
2019-02-14T22:13:14.552Z,8.10
2019-02-14T22:15:43.442Z,7.87
2019-02-14T22:18:12.639Z,7.07
2019-02-14T22:20:41.424Z,7.93
2019-02-14T22:23:10.222Z,7.60
2019-02-14T22:25:39.180Z,7.30
2019-02-14T22:28:07.998Z,7.53
2019-02-14T22:30:36.775Z,7.50
2019-02-14T22:33:05.717Z,7.23
2019-02-14T22:35:34.588Z,7.37
2019-02-14T22:38:03.376Z,7.93
2019-02-14T22:40:32.182Z,7.47
2019-02-14T22:43:00.996Z,7.20
2019-02-14T22:45:29.843Z,7.33
2019-02-14T22:47:58.612Z,6.63
2019-02-14T22:50:27.470Z,7.78
2019-02-14T22:52:56.287Z,7.37
2019-02-14T22:55:25.100Z,7.03
2019-02-14T22:57:53.907Z,7.00
2019-02-14T23:00:32.193Z,7.10
2019-02-14T23:03:01.297Z,7.23
2019-02-14T23:05:30.138Z,7.07
2019-02-14T23:07:59.138Z,6.90
2019-02-14T23:10:29.200Z,6.60
2019-02-14T23:12:58.209Z,6.80
2019-02-14T23:15:27.052Z,6.97
2019-02-14T23:17:55.989Z,7.37
2019-02-14T23:20:25.026Z,6.90
2019-02-14T23:22:53.829Z,7.83
2019-02-14T23:25:22.732Z,7.20
2019-02-14T23:27:51.589Z,7.00
2019-02-14T23:30:20.583Z,7.27
2019-02-14T23:32:49.419Z,6.90
2019-02-14T23:35:18.281Z,6.93
2019-02-14T23:37:47.158Z,7.30
2019-02-14T23:40:15.972Z,6.20
2019-02-14T23:42:44.818Z,6.83
2019-02-14T23:45:13.833Z,7.37
2019-02-14T23:47:42.630Z,6.73
2019-02-14T23:50:11.700Z,7.03
2019-02-14T23:52:40.504Z,6.87
2019-02-14T23:55:09.520Z,6.53
2019-02-14T23:57:38.421Z,6.67
